createdAt,value
2018-03-04T00:00:03.960Z,89.61
2018-03-04T00:02:31.823Z,89.60
2018-03-04T00:04:59.382Z,89.82
2018-03-04T00:07:26.967Z,90.08
2018-03-04T00:09:54.506Z,90.20
2018-03-04T00:12:22.052Z,90.36
2018-03-04T00:14:49.712Z,90.49
2018-03-04T00:17:17.228Z,90.64
2018-03-04T00:19:44.728Z,90.54
2018-03-04T00:22:12.249Z,90.51
2018-03-04T00:24:39.734Z,90.46
2018-03-04T00:27:07.252Z,90.27
2018-03-04T00:29:34.744Z,90.22
2018-03-04T00:32:02.260Z,90.20
2018-03-04T00:34:29.784Z,90.20
2018-03-04T00:36:57.352Z,90.19
2018-03-04T00:39:24.864Z,90.24
2018-03-04T00:41:52.459Z,90.11
2018-03-04T00:44:19.985Z,89.96
2018-03-04T00:46:47.575Z,90.06
2018-03-04T00:49:15.072Z,89.75
2018-03-04T00:51:42.593Z,89.45
2018-03-04T00:54:10.100Z,89.37
2018-03-04T00:56:37.616Z,89.62
2018-03-04T00:59:05.167Z,89.15
2018-03-04T01:01:32.732Z,89.32
2018-03-04T01:04:00.291Z,89.45
2018-03-04T01:06:27.812Z,89.53
2018-03-04T01:08:55.424Z,89.60
2018-03-04T01:11:22.960Z,89.53
2018-03-04T01:13:50.528Z,89.56
2018-03-04T01:16:18.022Z,89.64
2018-03-04T01:18:45.648Z,89.71
2018-03-04T01:21:13.208Z,89.85
2018-03-04T01:23:40.773Z,89.99
2018-03-04T01:26:08.255Z,89.92
2018-03-04T01:28:35.801Z,89.92
2018-03-04T01:31:03.305Z,89.66
2018-03-04T01:33:30.903Z,89.03
2018-03-04T01:35:58.403Z,88.92
2018-03-04T01:38:26.023Z,89.15
2018-03-04T01:40:53.515Z,88.99
2018-03-04T01:43:21.035Z,88.64
2018-03-04T01:45:48.704Z,88.58
2018-03-04T01:48:16.359Z,88.48
2018-03-04T01:50:43.872Z,88.46
2018-03-04T01:53:11.399Z,88.45
2018-03-04T01:55:38.900Z,88.42
2018-03-04T01:58:06.444Z,88.44
2018-03-04T02:00:33.952Z,88.18
2018-03-04T02:03:01.468Z,88.01
2018-03-04T02:05:28.962Z,88.45
2018-03-04T02:07:56.551Z,88.45
2018-03-04T02:10:24.048Z,88.44
2018-03-04T02:12:51.579Z,88.64
2018-03-04T02:15:19.116Z,88.76
2018-03-04T02:17:46.651Z,88.76
2018-03-04T02:20:14.227Z,88.77
2018-03-04T02:22:41.791Z,89.05
2018-03-04T02:25:09.351Z,89.06
2018-03-04T02:27:36.928Z,89.16
2018-03-04T02:30:04.490Z,88.86
2018-03-04T02:32:32.033Z,88.68
2018-03-04T02:34:59.616Z,88.67
2018-03-04T02:37:27.124Z,88.34
2018-03-04T02:39:54.664Z,88.48
2018-03-04T02:42:22.167Z,88.43
2018-03-04T02:44:49.728Z,88.15
2018-03-04T02:47:17.261Z,88.13
2018-03-04T02:49:44.768Z,88.05
2018-03-04T02:52:12.276Z,87.95
2018-03-04T02:54:39.828Z,88.00
2018-03-04T02:57:07.319Z,88.00
2018-03-04T02:59:34.835Z,88.08
2018-03-04T03:02:02.345Z,87.92
2018-03-04T03:04:29.908Z,88.22
2018-03-04T03:06:57.459Z,88.25
2018-03-04T03:09:25.020Z,87.88
2018-03-04T03:11:52.520Z,87.75
2018-03-04T03:14:20.039Z,87.30
2018-03-04T03:16:47.580Z,87.21
2018-03-04T03:19:15.159Z,87.31
2018-03-04T03:21:42.660Z,87.32
2018-03-04T03:24:10.184Z,87.59
2018-03-04T03:26:37.681Z,87.67
2018-03-04T03:29:05.181Z,87.80
2018-03-04T03:31:32.704Z,87.96
2018-03-04T03:34:00.216Z,87.93
2018-03-04T03:36:27.739Z,87.81
2018-03-04T03:38:55.312Z,87.76
2018-03-04T03:41:22.827Z,87.48
2018-03-04T03:43:50.351Z,87.50
2018-03-04T03:46:17.998Z,87.13
2018-03-04T03:48:45.571Z,87.06
2018-03-04T03:51:13.135Z,87.12
2018-03-04T03:53:40.631Z,86.12
2018-03-04T03:56:08.152Z,85.88
2018-03-04T03:58:35.647Z,85.82
2018-03-04T04:01:03.155Z,85.80
2018-03-04T04:03:30.644Z,85.75
2018-03-04T04:05:58.184Z,85.50
2018-03-04T04:08:25.736Z,85.78
2018-03-04T04:10:53.256Z,86.29
2018-03-04T04:13:20.852Z,86.54
2018-03-04T04:15:48.364Z,87.09
2018-03-04T04:18:15.880Z,87.09
2018-03-04T04:20:43.393Z,87.26
2018-03-04T04:23:10.884Z,87.21
2018-03-04T04:25:38.454Z,87.36
2018-03-04T04:28:05.961Z,87.55
2018-03-04T04:30:33.494Z,86.89
2018-03-04T04:33:01.023Z,86.56
2018-03-04T04:35:28.580Z,86.13
2018-03-04T04:37:56.092Z,86.23
2018-03-04T04:40:23.592Z,86.32
2018-03-04T04:42:51.103Z,86.56
2018-03-04T04:45:18.627Z,86.84
2018-03-04T04:47:46.151Z,87.08
2018-03-04T04:50:13.735Z,87.02
2018-03-04T04:52:41.244Z,87.09
2018-03-04T04:55:08.750Z,86.92
2018-03-04T04:57:36.263Z,86.76
2018-03-04T05:00:03.751Z,86.12
2018-03-04T05:02:31.272Z,86.21
2018-03-04T05:04:58.756Z,86.11
2018-03-04T05:07:26.368Z,86.11
2018-03-04T05:09:53.851Z,86.26
2018-03-04T05:12:21.373Z,86.32
2018-03-04T05:14:48.868Z,86.46
2018-03-04T05:17:16.380Z,86.61
2018-03-04T05:19:43.939Z,86.80
2018-03-04T05:22:11.671Z,86.84
2018-03-04T05:24:39.263Z,87.09
2018-03-04T05:27:06.776Z,87.45
2018-03-04T05:29:34.291Z,87.28
2018-03-04T05:32:01.806Z,87.05
2018-03-04T05:34:29.296Z,86.86
2018-03-04T05:36:56.868Z,86.92
2018-03-04T05:39:24.368Z,87.06
2018-03-04T05:41:51.903Z,87.00
2018-03-04T05:44:19.428Z,86.98
2018-03-04T05:46:46.919Z,87.00
2018-03-04T05:49:14.427Z,86.92
2018-03-04T05:51:41.928Z,87.01
2018-03-04T05:54:09.448Z,86.91
2018-03-04T05:56:37.036Z,86.91
2018-03-04T05:59:04.553Z,86.98
2018-03-04T06:01:32.058Z,86.83
2018-03-04T06:03:59.567Z,86.81
2018-03-04T06:06:27.990Z,86.74
2018-03-04T06:08:55.524Z,86.66
2018-03-04T06:11:23.040Z,86.44
2018-03-04T06:13:50.675Z,86.54
2018-03-04T06:16:18.164Z,86.65
2018-03-04T06:18:45.680Z,86.37
2018-03-04T06:21:13.166Z,86.25
2018-03-04T06:23:40.703Z,85.81
2018-03-04T06:26:08.189Z,85.91
2018-03-04T06:28:35.737Z,85.69
2018-03-04T06:31:03.228Z,85.61
2018-03-04T06:33:30.743Z,85.80
2018-03-04T06:35:58.264Z,85.91
2018-03-04T06:38:25.888Z,85.50
2018-03-04T06:40:53.378Z,84.95
2018-03-04T06:43:20.919Z,84.44
2018-03-04T06:45:48.416Z,84.15
2018-03-04T06:48:16.008Z,83.89
2018-03-04T06:50:43.524Z,83.91
2018-03-04T06:53:11.015Z,83.71
2018-03-04T06:55:38.552Z,83.41
2018-03-04T06:58:06.143Z,83.57
2018-03-04T07:00:33.689Z,83.62
2018-03-04T07:03:01.263Z,83.20
2018-03-04T07:05:28.813Z,83.03
2018-03-04T07:07:56.371Z,83.07
2018-03-04T07:10:23.889Z,82.70
2018-03-04T07:12:51.483Z,82.21
2018-03-04T07:15:19.176Z,81.95
2018-03-04T07:17:46.676Z,81.53
2018-03-04T07:20:14.282Z,81.25
2018-03-04T07:22:41.831Z,80.36
2018-03-04T07:25:09.384Z,79.73
2018-03-04T07:27:37.049Z,79.79
2018-03-04T07:30:04.622Z,79.23
2018-03-04T07:32:32.175Z,79.45
2018-03-04T07:34:59.685Z,79.33
2018-03-04T07:37:27.176Z,78.75
2018-03-04T07:39:54.743Z,78.44
2018-03-04T07:42:22.311Z,78.23
2018-03-04T07:44:49.815Z,77.71
2018-03-04T07:47:17.355Z,78.07
2018-03-04T07:49:44.851Z,78.57
2018-03-04T07:52:12.343Z,78.08
2018-03-04T07:54:39.875Z,78.21
2018-03-04T07:57:07.367Z,78.14
2018-03-04T07:59:34.884Z,77.60
2018-03-04T08:02:02.398Z,77.20
2018-03-04T08:04:29.912Z,76.83
2018-03-04T08:06:57.480Z,76.42
2018-03-04T08:09:24.973Z,76.02
2018-03-04T08:11:52.492Z,75.50
2018-03-04T08:14:19.980Z,75.01
2018-03-04T08:16:47.514Z,75.18
2018-03-04T08:19:15.016Z,74.62
2018-03-04T08:21:42.605Z,74.08
2018-03-04T08:24:10.105Z,73.77
2018-03-04T08:26:49.587Z,73.63
2018-03-04T08:29:17.080Z,73.71
2018-03-04T08:31:44.695Z,73.49
2018-03-04T08:34:12.217Z,73.53
2018-03-04T08:36:39.802Z,73.32
2018-03-04T08:39:07.347Z,73.10
2018-03-04T08:41:34.859Z,73.59
2018-03-04T08:44:02.360Z,70.84
2018-03-04T08:46:29.876Z,71.65
2018-03-04T08:48:57.360Z,71.11
2018-03-04T08:51:24.882Z,70.75
2018-03-04T08:53:52.367Z,69.04
2018-03-04T08:56:19.955Z,69.64
2018-03-04T08:58:47.542Z,68.62
2018-03-04T09:01:15.040Z,68.95
2018-03-04T09:03:42.639Z,68.74
2018-03-04T09:06:10.147Z,67.99
2018-03-04T09:08:37.679Z,68.21
2018-03-04T09:11:05.184Z,67.55
2018-03-04T09:13:32.692Z,68.66
2018-03-04T09:16:00.232Z,67.89
2018-03-04T09:18:27.792Z,67.71
2018-03-04T09:20:55.272Z,68.49
2018-03-04T09:23:22.811Z,68.40
2018-03-04T09:25:50.305Z,67.19
2018-03-04T09:28:17.829Z,67.54
2018-03-04T09:30:45.332Z,67.18
2018-03-04T09:33:12.886Z,67.33
2018-03-04T09:35:40.382Z,67.24
2018-03-04T09:38:07.959Z,67.24
2018-03-04T09:40:35.528Z,66.75
2018-03-04T09:43:03.049Z,66.06
2018-03-04T09:45:30.584Z,65.00
2018-03-04T09:47:58.083Z,64.28
2018-03-04T09:50:25.580Z,64.21
2018-03-04T09:52:53.099Z,63.92
2018-03-04T09:55:20.586Z,63.43
2018-03-04T09:57:48.099Z,60.41
2018-03-04T10:00:15.692Z,58.96
2018-03-04T10:02:43.368Z,55.71
2018-03-04T10:05:10.871Z,55.39
2018-03-04T10:07:38.392Z,53.52
2018-03-04T10:10:05.912Z,52.46
2018-03-04T10:12:33.420Z,50.08
2018-03-04T10:15:00.952Z,47.91
2018-03-04T10:17:28.448Z,46.61
2018-03-04T10:19:55.968Z,45.66
2018-03-04T10:22:23.839Z,45.98
2018-03-04T10:24:51.365Z,45.68
2018-03-04T10:27:18.866Z,46.64
2018-03-04T10:29:46.415Z,46.86
2018-03-04T10:32:13.919Z,45.88
2018-03-04T10:34:41.528Z,47.31
2018-03-04T10:37:09.020Z,48.08
2018-03-04T10:39:36.544Z,49.86
2018-03-04T10:42:04.055Z,50.92
2018-03-04T10:44:31.576Z,51.74
2018-03-04T10:46:59.246Z,52.35
2018-03-04T10:49:26.818Z,51.38
2018-03-04T10:51:54.369Z,50.57
2018-03-04T10:54:21.903Z,50.35
2018-03-04T10:56:49.478Z,49.77
2018-03-04T10:59:16.971Z,51.44
2018-03-04T11:01:44.508Z,51.54
2018-03-04T11:04:12.056Z,52.02
2018-03-04T11:06:39.576Z,50.87
2018-03-04T11:09:07.076Z,48.07
2018-03-04T11:11:34.644Z,43.12
2018-03-04T11:14:02.208Z,42.93
2018-03-04T11:16:29.735Z,41.46
2018-03-04T11:18:57.224Z,44.68
2018-03-04T11:21:24.876Z,41.03
2018-03-04T11:23:52.380Z,37.51
2018-03-04T11:26:19.896Z,35.03
2018-03-04T11:28:47.473Z,36.16
2018-03-04T11:31:14.987Z,36.63
2018-03-04T11:33:42.504Z,34.54
2018-03-04T11:36:10.015Z,33.76
2018-03-04T11:38:37.503Z,31.71
2018-03-04T11:41:05.031Z,30.12
2018-03-04T11:43:32.522Z,29.85
2018-03-04T11:46:00.167Z,29.80
2018-03-04T11:48:27.696Z,29.00
2018-03-04T11:50:55.243Z,29.68
2018-03-04T11:53:22.742Z,30.10
2018-03-04T11:55:50.259Z,32.11
2018-03-04T11:58:17.759Z,31.99
2018-03-04T12:00:45.300Z,31.31
2018-03-04T12:03:12.873Z,28.33
2018-03-04T12:05:40.372Z,27.78
2018-03-04T12:08:07.982Z,27.68
2018-03-04T12:10:35.476Z,25.56
2018-03-04T12:13:03.076Z,24.33
2018-03-04T12:15:30.662Z,24.11
2018-03-04T12:17:58.222Z,24.28
2018-03-04T12:20:25.708Z,24.48
2018-03-04T12:22:53.239Z,25.65
2018-03-04T12:25:20.835Z,24.97
2018-03-04T12:27:48.375Z,25.40
2018-03-04T12:30:15.862Z,25.68
2018-03-04T12:32:43.383Z,24.79
2018-03-04T12:35:10.927Z,24.98
2018-03-04T12:37:38.492Z,24.91
2018-03-04T12:40:06.070Z,25.25
2018-03-04T12:42:33.612Z,27.15
2018-03-04T12:45:01.120Z,28.88
2018-03-04T12:47:28.630Z,25.73
2018-03-04T12:49:56.148Z,26.94
2018-03-04T12:52:23.657Z,26.14
2018-03-04T12:54:51.203Z,28.63
2018-03-04T12:57:18.762Z,28.58
2018-03-04T12:59:46.323Z,27.27
2018-03-04T13:02:13.879Z,25.73
2018-03-04T13:04:41.375Z,21.60
2018-03-04T13:07:08.900Z,20.69
2018-03-04T13:09:36.411Z,20.44
2018-03-04T13:12:03.970Z,19.77
2018-03-04T13:14:31.470Z,17.73
2018-03-04T13:16:58.968Z,18.91
2018-03-04T13:19:26.607Z,18.99
2018-03-04T13:21:54.178Z,18.65
2018-03-04T13:24:21.735Z,18.01
2018-03-04T13:26:49.224Z,19.26
2018-03-04T13:29:16.743Z,22.32
2018-03-04T13:31:44.295Z,27.08
2018-03-04T13:34:11.878Z,29.39
2018-03-04T13:36:39.368Z,28.82
2018-03-04T13:39:06.912Z,27.36
2018-03-04T13:41:34.427Z,24.35
2018-03-04T13:44:01.987Z,25.85
2018-03-04T13:46:29.587Z,26.29
2018-03-04T13:48:57.104Z,22.80
2018-03-04T13:51:24.691Z,23.87
2018-03-04T13:53:52.226Z,25.16
2018-03-04T13:56:19.810Z,27.19
2018-03-04T13:58:47.323Z,29.32
2018-03-04T14:01:14.912Z,29.21
2018-03-04T14:03:42.479Z,27.18
2018-03-04T14:06:10.032Z,25.98
2018-03-04T14:08:37.636Z,23.31
2018-03-04T14:11:05.146Z,26.30
2018-03-04T14:13:32.715Z,27.92
2018-03-04T14:16:00.206Z,27.51
2018-03-04T14:18:27.712Z,28.97
2018-03-04T14:20:55.196Z,29.45
2018-03-04T14:23:22.742Z,31.83
2018-03-04T14:25:50.276Z,32.65
2018-03-04T14:28:17.765Z,33.28
2018-03-04T14:30:45.288Z,32.58
2018-03-04T14:33:12.776Z,33.13
2018-03-04T14:35:40.339Z,32.68
2018-03-04T14:38:07.895Z,33.04
2018-03-04T14:40:35.461Z,33.77
2018-03-04T14:43:02.952Z,34.14
2018-03-04T14:45:30.475Z,35.25
2018-03-04T14:47:57.960Z,35.27
2018-03-04T14:50:25.717Z,35.46
2018-03-04T14:52:53.321Z,36.34
2018-03-04T14:55:20.825Z,36.63
2018-03-04T14:57:48.384Z,37.54
2018-03-04T15:00:15.932Z,37.54
2018-03-04T15:02:43.420Z,38.81
2018-03-04T15:05:10.941Z,38.14
2018-03-04T15:07:38.428Z,38.27
2018-03-04T15:10:05.940Z,38.55
2018-03-04T15:12:33.474Z,39.26
2018-03-04T15:15:01.007Z,39.58
2018-03-04T15:17:28.550Z,40.80
2018-03-04T15:19:56.062Z,40.95
2018-03-04T15:22:23.553Z,40.63
2018-03-04T15:24:51.085Z,40.76
2018-03-04T15:27:18.696Z,40.99
2018-03-04T15:29:46.196Z,41.41
2018-03-04T15:32:13.803Z,41.43
2018-03-04T15:34:41.363Z,41.89
2018-03-04T15:37:08.867Z,42.00
2018-03-04T15:39:36.361Z,42.18
2018-03-04T15:42:03.876Z,42.37
2018-03-04T15:44:31.884Z,42.34
2018-03-04T15:46:59.408Z,42.07
2018-03-04T15:49:26.913Z,42.44
2018-03-04T15:51:54.423Z,42.49
2018-03-04T15:54:21.947Z,42.29
2018-03-04T15:56:49.531Z,41.88
2018-03-04T15:59:17.032Z,42.43
2018-03-04T16:01:44.541Z,43.01
2018-03-04T16:04:12.076Z,43.04
2018-03-04T16:06:39.579Z,43.96
2018-03-04T16:09:07.067Z,44.34
2018-03-04T16:11:34.576Z,44.68
2018-03-04T16:14:02.059Z,44.97
2018-03-04T16:16:29.677Z,45.34
2018-03-04T16:18:57.162Z,45.54
2018-03-04T16:21:24.683Z,45.37
2018-03-04T16:23:52.256Z,45.44
2018-03-04T16:26:19.772Z,45.89
2018-03-04T16:28:47.255Z,46.44
2018-03-04T16:31:14.779Z,46.69
2018-03-04T16:33:42.288Z,46.70
2018-03-04T16:36:09.847Z,46.68
2018-03-04T16:38:37.416Z,46.35
2018-03-04T16:41:04.968Z,46.48
2018-03-04T16:43:32.522Z,46.46
2018-03-04T16:46:00.087Z,46.75
2018-03-04T16:48:27.651Z,46.39
2018-03-04T16:50:55.138Z,46.37
2018-03-04T16:53:22.661Z,46.60
2018-03-04T16:55:50.148Z,47.39
2018-03-04T16:58:17.660Z,47.15
2018-03-04T17:00:45.151Z,47.92
2018-03-04T17:03:12.800Z,47.44
2018-03-04T17:05:40.293Z,47.50
2018-03-04T17:08:07.815Z,47.22
2018-03-04T17:10:35.380Z,47.95
2018-03-04T17:13:02.940Z,47.88
2018-03-04T17:15:30.603Z,47.79
2018-03-04T17:17:58.108Z,48.62
2018-03-04T17:20:25.596Z,48.85
2018-03-04T17:22:53.152Z,49.68
2018-03-04T17:25:20.736Z,49.70
2018-03-04T17:27:48.243Z,50.04
2018-03-04T17:30:15.755Z,50.23
2018-03-04T17:32:43.256Z,51.57
2018-03-04T17:35:10.831Z,51.74
2018-03-04T17:37:38.340Z,51.92
2018-03-04T17:40:05.856Z,52.04
2018-03-04T17:42:33.339Z,51.71
2018-03-04T17:45:00.943Z,51.44
2018-03-04T17:47:28.435Z,51.30
2018-03-04T17:49:56.963Z,50.74
2018-03-04T17:52:24.491Z,50.86
2018-03-04T17:54:52.073Z,51.54
2018-03-04T17:57:19.563Z,51.75
2018-03-04T17:59:47.104Z,51.73
2018-03-04T18:02:14.583Z,52.23
2018-03-04T18:04:42.102Z,51.57
2018-03-04T18:07:09.665Z,51.35
2018-03-04T18:09:37.184Z,51.20
2018-03-04T18:12:04.671Z,51.19
2018-03-04T18:14:32.176Z,51.77
2018-03-04T18:16:59.696Z,52.13
2018-03-04T18:19:27.255Z,52.38
2018-03-04T18:21:54.820Z,51.94
2018-03-04T18:24:22.379Z,51.72
2018-03-04T18:26:49.940Z,50.85
2018-03-04T18:29:17.497Z,50.20
2018-03-04T18:31:44.999Z,50.27
2018-03-04T18:34:12.560Z,49.96
2018-03-04T18:36:40.098Z,50.24
2018-03-04T18:39:07.614Z,51.42
2018-03-04T18:41:35.178Z,51.89
2018-03-04T18:44:02.763Z,52.55
2018-03-04T18:46:30.271Z,52.64
2018-03-04T18:48:57.759Z,52.43
2018-03-04T18:51:25.283Z,52.52
2018-03-04T18:53:52.775Z,52.57
2018-03-04T18:56:20.358Z,52.75
2018-03-04T18:58:47.908Z,52.86
2018-03-04T19:01:15.472Z,53.01
2018-03-04T19:03:43.006Z,52.94
2018-03-04T19:06:10.519Z,53.39
2018-03-04T19:08:38.011Z,50.98
2018-03-04T19:11:05.516Z,50.34
2018-03-04T19:13:33.089Z,50.87
2018-03-04T19:16:00.601Z,51.79
2018-03-04T19:18:28.205Z,51.13
2018-03-04T19:20:55.720Z,50.99
2018-03-04T19:23:23.224Z,51.30
2018-03-04T19:25:50.735Z,51.70
2018-03-04T19:28:18.299Z,51.67
2018-03-04T19:30:45.862Z,54.41
2018-03-04T19:33:13.440Z,56.07
2018-03-04T19:35:40.963Z,57.29
2018-03-04T19:38:08.451Z,59.29
2018-03-04T19:40:35.972Z,60.39
2018-03-04T19:43:03.457Z,61.70
2018-03-04T19:45:30.982Z,62.11
2018-03-04T19:47:58.469Z,62.25
2018-03-04T19:50:25.994Z,63.79
2018-03-04T19:52:53.475Z,64.64
2018-03-04T19:55:21.050Z,65.36
2018-03-04T19:57:48.630Z,66.22
2018-03-04T20:00:16.112Z,66.72
2018-03-04T20:02:43.638Z,67.42
2018-03-04T20:05:11.128Z,67.83
2018-03-04T20:07:38.783Z,68.18
2018-03-04T20:10:06.532Z,68.58
2018-03-04T20:12:34.097Z,69.16
2018-03-04T20:15:01.669Z,69.69
2018-03-04T20:17:29.174Z,70.08
2018-03-04T20:19:56.661Z,70.38
2018-03-04T20:22:24.176Z,70.31
2018-03-04T20:24:52.432Z,70.40
2018-03-04T20:27:19.945Z,70.59
2018-03-04T20:29:47.428Z,70.76
2018-03-04T20:32:14.948Z,71.09
2018-03-04T20:34:42.535Z,71.67
2018-03-04T20:37:10.118Z,71.79
2018-03-04T20:39:37.608Z,72.26
2018-03-04T20:42:05.238Z,72.62
2018-03-04T20:44:32.752Z,73.59
2018-03-04T20:47:00.265Z,73.36
2018-03-04T20:49:27.760Z,73.60
2018-03-04T20:51:55.266Z,74.31
2018-03-04T20:54:22.761Z,74.91
2018-03-04T20:56:50.259Z,75.50
2018-03-04T20:59:17.768Z,75.83
2018-03-04T21:01:45.312Z,76.00
2018-03-04T21:04:12.851Z,76.94
2018-03-04T21:06:40.358Z,76.61
2018-03-04T21:09:07.863Z,76.92
2018-03-04T21:11:35.371Z,77.10
2018-03-04T21:14:02.870Z,76.80
2018-03-04T21:16:30.376Z,77.24
2018-03-04T21:18:57.900Z,77.28
2018-03-04T21:21:25.459Z,77.97
2018-03-04T21:23:53.010Z,78.43
2018-03-04T21:26:20.573Z,78.55
2018-03-04T21:28:48.083Z,79.03
2018-03-04T21:31:15.558Z,79.62
2018-03-04T21:33:43.152Z,80.03
2018-03-04T21:36:10.713Z,79.81
2018-03-04T21:38:38.219Z,78.23
2018-03-04T21:41:05.699Z,78.02
2018-03-04T21:43:33.288Z,78.98
2018-03-04T21:46:00.784Z,78.75
2018-03-04T21:48:28.307Z,78.35
2018-03-04T21:50:55.866Z,78.43
2018-03-04T21:53:23.387Z,79.42
2018-03-04T21:55:51.008Z,80.06
2018-03-04T21:58:18.520Z,80.85
2018-03-04T22:00:46.278Z,81.56
2018-03-04T22:03:13.784Z,82.13
2018-03-04T22:05:41.302Z,82.17
2018-03-04T22:08:08.795Z,82.23
2018-03-04T22:10:36.287Z,82.38
2018-03-04T22:13:03.812Z,82.34
2018-03-04T22:15:31.295Z,82.14
2018-03-04T22:17:58.847Z,81.88
2018-03-04T22:20:26.330Z,81.75
2018-03-04T22:22:53.840Z,81.84
2018-03-04T22:25:21.391Z,81.79
2018-03-04T22:27:48.895Z,81.48
2018-03-04T22:30:16.412Z,79.77
2018-03-04T22:32:43.921Z,79.40
2018-03-04T22:35:11.435Z,79.14
2018-03-04T22:37:38.955Z,79.31
2018-03-04T22:40:06.453Z,79.65
2018-03-04T22:42:33.962Z,80.00
2018-03-04T22:45:01.469Z,78.54
2018-03-04T22:47:28.992Z,78.08
2018-03-04T22:49:56.473Z,78.55
2018-03-04T22:52:23.986Z,78.80
2018-03-04T22:54:51.498Z,80.08
2018-03-04T22:57:19.082Z,80.77
2018-03-04T22:59:46.699Z,81.53
2018-03-04T23:02:14.184Z,81.79
2018-03-04T23:04:41.683Z,81.73
2018-03-04T23:07:09.183Z,81.80
2018-03-04T23:09:36.719Z,82.07
2018-03-04T23:12:04.207Z,82.22
2018-03-04T23:14:31.716Z,82.53
2018-03-04T23:16:59.203Z,82.84
2018-03-04T23:19:26.709Z,83.37
2018-03-04T23:21:54.192Z,83.87
2018-03-04T23:24:21.706Z,84.26
2018-03-04T23:26:49.219Z,84.44
2018-03-04T23:29:16.728Z,84.23
2018-03-04T23:31:44.290Z,83.97
2018-03-04T23:34:11.800Z,83.98
2018-03-04T23:36:39.284Z,84.16
2018-03-04T23:39:06.828Z,84.22
2018-03-04T23:41:34.311Z,84.12
2018-03-04T23:44:01.811Z,84.12
2018-03-04T23:46:29.307Z,84.00
2018-03-04T23:48:56.816Z,83.91
2018-03-04T23:51:24.301Z,84.28
2018-03-04T23:53:51.812Z,84.42
2018-03-04T23:56:19.291Z,84.65
2018-03-04T23:58:46.808Z,84.73
